sensor_id;sensor_type;location;lat;lon;timestamp;P1;durP1;ratioP1;P2;durP2;ratioP2
13335;SDS011;6737;51.480;11.962;2023-01-10T00:00:26;4.93;;;1.90;;
13335;SDS011;6737;51.480;11.962;2023-01-10T00:02:58;2.30;;;1.90;;
13335;SDS011;6737;51.480;11.962;2023-01-10T00:05:32;2.60;;;1.80;;
13335;SDS011;6737;51.480;11.962;2023-01-10T00:07:59;3.77;;;2.10;;
13335;SDS011;6737;51.480;11.962;2023-01-10T00:10:27;3.27;;;2.23;;
13335;SDS011;6737;51.480;11.962;2023-01-10T00:12:53;3.60;;;2.13;;
13335;SDS011;6737;51.480;11.962;2023-01-10T00:15:37;2.90;;;1.87;;
13335;SDS011;6737;51.480;11.962;2023-01-10T00:18:03;2.80;;;2.27;;
13335;SDS011;6737;51.480;11.962;2023-01-10T00:20:29;2.67;;;2.10;;
13335;SDS011;6737;51.480;11.962;2023-01-10T00:22:56;2.50;;;2.00;;
13335;SDS011;6737;51.480;11.962;2023-01-10T00:25:22;5.60;;;2.43;;
13335;SDS011;6737;51.480;11.962;2023-01-10T00:27:48;3.60;;;2.00;;
13335;SDS011;6737;51.480;11.962;2023-01-10T00:30:41;3.33;;;2.03;;
13335;SDS011;6737;51.480;11.962;2023-01-10T00:33:07;2.47;;;2.00;;
13335;SDS011;6737;51.480;11.962;2023-01-10T00:35:33;4.83;;;2.27;;
13335;SDS011;6737;51.480;11.962;2023-01-10T00:37:59;3.93;;;2.37;;
13335;SDS011;6737;51.480;11.962;2023-01-10T00:40:34;3.77;;;2.10;;
13335;SDS011;6737;51.480;11.962;2023-01-10T00:43:00;2.93;;;2.30;;
13335;SDS011;6737;51.480;11.962;2023-01-10T00:45:45;2.97;;;2.20;;
13335;SDS011;6737;51.480;11.962;2023-01-10T00:48:12;4.97;;;2.30;;
13335;SDS011;6737;51.480;11.962;2023-01-10T00:50:38;3.67;;;2.40;;
13335;SDS011;6737;51.480;11.962;2023-01-10T00:53:04;3.30;;;2.30;;
13335;SDS011;6737;51.480;11.962;2023-01-10T00:55:30;2.60;;;2.20;;
13335;SDS011;6737;51.480;11.962;2023-01-10T00:57:57;3.80;;;2.40;;
13335;SDS011;6737;51.480;11.962;2023-01-10T01:00:23;3.70;;;2.50;;
13335;SDS011;6737;51.480;11.962;2023-01-10T01:02:49;2.90;;;2.20;;
13335;SDS011;6737;51.480;11.962;2023-01-10T01:05:15;4.40;;;2.27;;
13335;SDS011;6737;51.480;11.962;2023-01-10T01:07:42;3.90;;;2.40;;
13335;SDS011;6737;51.480;11.962;2023-01-10T01:10:08;4.97;;;2.03;;
13335;SDS011;6737;51.480;11.962;2023-01-10T01:12:53;3.47;;;2.50;;
13335;SDS011;6737;51.480;11.962;2023-01-10T01:15:20;2.53;;;1.83;;
13335;SDS011;6737;51.480;11.962;2023-01-10T01:17:47;4.93;;;2.43;;
13335;SDS011;6737;51.480;11.962;2023-01-10T01:20:13;3.83;;;2.50;;
13335;SDS011;6737;51.480;11.962;2023-01-10T01:22:39;6.10;;;2.70;;
13335;SDS011;6737;51.480;11.962;2023-01-10T01:25:05;4.50;;;2.40;;
13335;SDS011;6737;51.480;11.962;2023-01-10T01:27:32;4.33;;;2.17;;
13335;SDS011;6737;51.480;11.962;2023-01-10T01:29:59;4.03;;;2.50;;
13335;SDS011;6737;51.480;11.962;2023-01-10T01:32:26;4.40;;;2.17;;
13335;SDS011;6737;51.480;11.962;2023-01-10T01:34:51;3.20;;;2.30;;
13335;SDS011;6737;51.480;11.962;2023-01-10T01:37:17;4.33;;;2.83;;
13335;SDS011;6737;51.480;11.962;2023-01-10T01:39:44;6.43;;;2.37;;
13335;SDS011;6737;51.480;11.962;2023-01-10T01:42:20;3.47;;;1.90;;
13335;SDS011;6737;51.480;11.962;2023-01-10T01:50:34;2.97;;;2.07;;
13335;SDS011;6737;51.480;11.962;2023-01-10T01:53:26;5.70;;;2.10;;
13335;SDS011;6737;51.480;11.962;2023-01-10T01:55:56;4.07;;;2.20;;
13335;SDS011;6737;51.480;11.962;2023-01-10T01:58:39;4.43;;;2.30;;
13335;SDS011;6737;51.480;11.962;2023-01-10T02:01:09;2.63;;;1.90;;
13335;SDS011;6737;51.480;11.962;2023-01-10T02:03:37;4.07;;;2.17;;
13335;SDS011;6737;51.480;11.962;2023-01-10T02:06:05;4.33;;;2.03;;
13335;SDS011;6737;51.480;11.962;2023-01-10T02:08:31;4.10;;;1.90;;
13335;SDS011;6737;51.480;11.962;2023-01-10T02:11:19;3.67;;;2.00;;
13335;SDS011;6737;51.480;11.962;2023-01-10T02:13:44;3.60;;;1.83;;
13335;SDS011;6737;51.480;11.962;2023-01-10T02:16:11;2.20;;;1.80;;
13335;SDS011;6737;51.480;11.962;2023-01-10T02:18:37;5.07;;;2.30;;
13335;SDS011;6737;51.480;11.962;2023-01-10T02:21:26;3.87;;;2.00;;
13335;SDS011;6737;51.480;11.962;2023-01-10T02:24:10;4.20;;;2.37;;
13335;SDS011;6737;51.480;11.962;2023-01-10T02:32:32;4.20;;;2.43;;
13335;SDS011;6737;51.480;11.962;2023-01-10T02:38:32;3.43;;;2.63;;
13335;SDS011;6737;51.480;11.962;2023-01-10T02:41:18;3.93;;;2.47;;
13335;SDS011;6737;51.480;11.962;2023-01-10T02:43:50;4.77;;;2.67;;
13335;SDS011;6737;51.480;11.962;2023-01-10T02:46:24;5.23;;;2.70;;
13335;SDS011;6737;51.480;11.962;2023-01-10T02:48:53;5.40;;;3.10;;
13335;SDS011;6737;51.480;11.962;2023-01-10T02:51:20;6.57;;;3.13;;
13335;SDS011;6737;51.480;11.962;2023-01-10T02:53:53;4.80;;;3.00;;
13335;SDS011;6737;51.480;11.962;2023-01-10T02:57:06;5.93;;;3.20;;
13335;SDS011;6737;51.480;11.962;2023-01-10T03:05:09;4.43;;;2.90;;
13335;SDS011;6737;51.480;11.962;2023-01-10T03:07:52;4.73;;;2.93;;
13335;SDS011;6737;51.480;11.962;2023-01-10T03:10:29;7.23;;;3.40;;
13335;SDS011;6737;51.480;11.962;2023-01-10T03:13:05;6.73;;;3.57;;
13335;SDS011;6737;51.480;11.962;2023-01-10T03:15:37;5.93;;;3.67;;
13335;SDS011;6737;51.480;11.962;2023-01-10T03:18:07;6.57;;;3.47;;
13335;SDS011;6737;51.480;11.962;2023-01-10T03:20:41;6.27;;;3.60;;
13335;SDS011;6737;51.480;11.962;2023-01-10T03:23:09;5.17;;;3.77;;
13335;SDS011;6737;51.480;11.962;2023-01-10T03:25:37;7.30;;;3.40;;
13335;SDS011;6737;51.480;11.962;2023-01-10T03:28:09;5.10;;;3.50;;
13335;SDS011;6737;51.480;11.962;2023-01-10T03:30:41;5.23;;;3.60;;
13335;SDS011;6737;51.480;11.962;2023-01-10T03:33:21;4.53;;;3.23;;
13335;SDS011;6737;51.480;11.962;2023-01-10T03:39:05;6.30;;;4.13;;
13335;SDS011;6737;51.480;11.962;2023-01-10T03:47:12;7.13;;;3.87;;
13335;SDS011;6737;51.480;11.962;2023-01-10T03:49:42;5.43;;;3.37;;
13335;SDS011;6737;51.480;11.962;2023-01-10T03:52:13;6.77;;;3.47;;
13335;SDS011;6737;51.480;11.962;2023-01-10T03:54:45;7.20;;;3.20;;
13335;SDS011;6737;51.480;11.962;2023-01-10T03:57:21;6.87;;;3.37;;
13335;SDS011;6737;51.480;11.962;2023-01-10T03:59:52;8.30;;;3.33;;
13335;SDS011;6737;51.480;11.962;2023-01-10T04:02:23;4.87;;;3.40;;
13335;SDS011;6737;51.480;11.962;2023-01-10T04:04:51;6.83;;;3.67;;
13335;SDS011;6737;51.480;11.962;2023-01-10T04:07:16;9.53;;;3.90;;
13335;SDS011;6737;51.480;11.962;2023-01-10T04:09:42;6.83;;;4.00;;
13335;SDS011;6737;51.480;11.962;2023-01-10T04:12:09;6.53;;;4.17;;
13335;SDS011;6737;51.480;11.962;2023-01-10T04:14:35;6.90;;;3.87;;
13335;SDS011;6737;51.480;11.962;2023-01-10T04:17:01;6.43;;;4.37;;
13335;SDS011;6737;51.480;11.962;2023-01-10T04:19:28;5.40;;;3.97;;
13335;SDS011;6737;51.480;11.962;2023-01-10T04:21:53;6.17;;;4.10;;
13335;SDS011;6737;51.480;11.962;2023-01-10T04:24:19;5.60;;;3.90;;
13335;SDS011;6737;51.480;11.962;2023-01-10T04:26:45;7.47;;;4.10;;
13335;SDS011;6737;51.480;11.962;2023-01-10T04:29:11;7.07;;;4.13;;
13335;SDS011;6737;51.480;11.962;2023-01-10T04:31:37;6.40;;;3.90;;
13335;SDS011;6737;51.480;11.962;2023-01-10T04:34:04;7.93;;;4.43;;
13335;SDS011;6737;51.480;11.962;2023-01-10T04:36:32;5.97;;;4.37;;
13335;SDS011;6737;51.480;11.962;2023-01-10T04:38:58;6.47;;;4.00;;
13335;SDS011;6737;51.480;11.962;2023-01-10T04:41:24;8.03;;;5.87;;
13335;SDS011;6737;51.480;11.962;2023-01-10T04:43:50;6.13;;;4.27;;
13335;SDS011;6737;51.480;11.962;2023-01-10T04:46:15;6.53;;;3.73;;
13335;SDS011;6737;51.480;11.962;2023-01-10T04:48:41;4.90;;;3.67;;
13335;SDS011;6737;51.480;11.962;2023-01-10T04:51:07;5.93;;;3.70;;
13335;SDS011;6737;51.480;11.962;2023-01-10T04:53:33;7.53;;;4.10;;
13335;SDS011;6737;51.480;11.962;2023-01-10T04:56:02;5.57;;;4.00;;
13335;SDS011;6737;51.480;11.962;2023-01-10T04:58:30;8.23;;;3.77;;
13335;SDS011;6737;51.480;11.962;2023-01-10T05:00:58;5.87;;;3.70;;
13335;SDS011;6737;51.480;11.962;2023-01-10T05:03:24;6.07;;;3.97;;
13335;SDS011;6737;51.480;11.962;2023-01-10T05:05:50;5.63;;;3.97;;
13335;SDS011;6737;51.480;11.962;2023-01-10T05:08:15;6.97;;;3.90;;
13335;SDS011;6737;51.480;11.962;2023-01-10T05:10:41;6.07;;;4.37;;
13335;SDS011;6737;51.480;11.962;2023-01-10T05:13:07;5.97;;;3.73;;
13335;SDS011;6737;51.480;11.962;2023-01-10T05:15:33;5.17;;;3.80;;
13335;SDS011;6737;51.480;11.962;2023-01-10T05:17:59;7.43;;;4.20;;
13335;SDS011;6737;51.480;11.962;2023-01-10T05:20:25;7.07;;;4.10;;
13335;SDS011;6737;51.480;11.962;2023-01-10T05:22:51;6.60;;;3.90;;
13335;SDS011;6737;51.480;11.962;2023-01-10T05:25:17;4.90;;;3.83;;
13335;SDS011;6737;51.480;11.962;2023-01-10T05:27:42;7.07;;;4.50;;
13335;SDS011;6737;51.480;11.962;2023-01-10T05:30:11;7.23;;;4.10;;
13335;SDS011;6737;51.480;11.962;2023-01-10T05:32:38;6.43;;;4.57;;
13335;SDS011;6737;51.480;11.962;2023-01-10T05:35:04;8.57;;;4.53;;
13335;SDS011;6737;51.480;11.962;2023-01-10T05:37:30;5.50;;;4.10;;
13335;SDS011;6737;51.480;11.962;2023-01-10T05:39:56;6.00;;;4.10;;
13335;SDS011;6737;51.480;11.962;2023-01-10T05:42:21;8.23;;;4.20;;
13335;SDS011;6737;51.480;11.962;2023-01-10T05:44:47;7.03;;;4.40;;
13335;SDS011;6737;51.480;11.962;2023-01-10T05:47:13;8.27;;;4.40;;
13335;SDS011;6737;51.480;11.962;2023-01-10T05:49:38;6.87;;;3.80;;
13335;SDS011;6737;51.480;11.962;2023-01-10T05:52:04;8.47;;;4.33;;
13335;SDS011;6737;51.480;11.962;2023-01-10T05:54:30;6.27;;;4.10;;
13335;SDS011;6737;51.480;11.962;2023-01-10T05:56:56;6.23;;;4.03;;
13335;SDS011;6737;51.480;11.962;2023-01-10T05:59:21;5.40;;;3.90;;
13335;SDS011;6737;51.480;11.962;2023-01-10T06:01:47;5.77;;;3.63;;
13335;SDS011;6737;51.480;11.962;2023-01-10T06:04:13;5.87;;;3.60;;
13335;SDS011;6737;51.480;11.962;2023-01-10T06:06:39;5.57;;;3.87;;
13335;SDS011;6737;51.480;11.962;2023-01-10T06:09:06;6.33;;;3.93;;
13335;SDS011;6737;51.480;11.962;2023-01-10T06:11:32;8.77;;;3.80;;
13335;SDS011;6737;51.480;11.962;2023-01-10T06:14:00;4.50;;;3.37;;
13335;SDS011;6737;51.480;11.962;2023-01-10T06:16:26;5.80;;;3.30;;
13335;SDS011;6737;51.480;11.962;2023-01-10T06:18:52;5.70;;;3.40;;
13335;SDS011;6737;51.480;11.962;2023-01-10T06:21:18;4.67;;;3.37;;
13335;SDS011;6737;51.480;11.962;2023-01-10T06:23:44;4.63;;;3.40;;
13335;SDS011;6737;51.480;11.962;2023-01-10T06:26:09;6.00;;;3.80;;
13335;SDS011;6737;51.480;11.962;2023-01-10T06:28:35;3.90;;;2.93;;
13335;SDS011;6737;51.480;11.962;2023-01-10T06:31:01;5.13;;;3.30;;
13335;SDS011;6737;51.480;11.962;2023-01-10T06:33:27;5.07;;;3.30;;
13335;SDS011;6737;51.480;11.962;2023-01-10T06:35:52;4.73;;;3.33;;
13335;SDS011;6737;51.480;11.962;2023-01-10T06:38:18;4.70;;;3.30;;
13335;SDS011;6737;51.480;11.962;2023-01-10T06:40:44;4.83;;;3.10;;
13335;SDS011;6737;51.480;11.962;2023-01-10T06:43:10;5.00;;;3.50;;
13335;SDS011;6737;51.480;11.962;2023-01-10T06:45:35;6.30;;;3.20;;
13335;SDS011;6737;51.480;11.962;2023-01-10T06:48:01;4.67;;;2.80;;
13335;SDS011;6737;51.480;11.962;2023-01-10T06:50:27;3.50;;;2.47;;
13335;SDS011;6737;51.480;11.962;2023-01-10T06:53:00;5.87;;;3.13;;
13335;SDS011;6737;51.480;11.962;2023-01-10T06:55:27;4.17;;;2.53;;
13335;SDS011;6737;51.480;11.962;2023-01-10T06:57:54;4.73;;;2.67;;
13335;SDS011;6737;51.480;11.962;2023-01-10T07:00:22;5.07;;;2.30;;
13335;SDS011;6737;51.480;11.962;2023-01-10T07:02:48;3.43;;;2.27;;
13335;SDS011;6737;51.480;11.962;2023-01-10T07:05:13;4.33;;;2.30;;
13335;SDS011;6737;51.480;11.962;2023-01-10T07:07:39;4.40;;;2.03;;
13335;SDS011;6737;51.480;11.962;2023-01-10T07:10:05;5.20;;;2.10;;
13335;SDS011;6737;51.480;11.962;2023-01-10T07:12:31;4.90;;;2.07;;
13335;SDS011;6737;51.480;11.962;2023-01-10T07:14:57;5.13;;;1.80;;
13335;SDS011;6737;51.480;11.962;2023-01-10T07:17:23;3.27;;;2.03;;
13335;SDS011;6737;51.480;11.962;2023-01-10T07:19:48;3.17;;;1.80;;
13335;SDS011;6737;51.480;11.962;2023-01-10T07:22:14;3.63;;;2.07;;
13335;SDS011;6737;51.480;11.962;2023-01-10T07:24:40;4.67;;;1.97;;
13335;SDS011;6737;51.480;11.962;2023-01-10T07:27:06;5.27;;;2.10;;
13335;SDS011;6737;51.480;11.962;2023-01-10T07:29:31;3.87;;;1.83;;
13335;SDS011;6737;51.480;11.962;2023-01-10T07:31:57;3.17;;;1.90;;
13335;SDS011;6737;51.480;11.962;2023-01-10T07:34:23;2.77;;;1.70;;
13335;SDS011;6737;51.480;11.962;2023-01-10T07:36:48;4.73;;;1.67;;
13335;SDS011;6737;51.480;11.962;2023-01-10T07:39:14;2.60;;;1.70;;
13335;SDS011;6737;51.480;11.962;2023-01-10T07:41:40;6.90;;;1.63;;
13335;SDS011;6737;51.480;11.962;2023-01-10T07:44:06;2.50;;;1.30;;
13335;SDS011;6737;51.480;11.962;2023-01-10T07:46:31;2.33;;;1.70;;
13335;SDS011;6737;51.480;11.962;2023-01-10T07:48:57;2.53;;;1.47;;
13335;SDS011;6737;51.480;11.962;2023-01-10T07:51:23;4.57;;;2.00;;
13335;SDS011;6737;51.480;11.962;2023-01-10T07:53:49;4.30;;;2.00;;
13335;SDS011;6737;51.480;11.962;2023-01-10T07:56:14;3.37;;;1.50;;
13335;SDS011;6737;51.480;11.962;2023-01-10T07:58:40;2.67;;;1.40;;
13335;SDS011;6737;51.480;11.962;2023-01-10T08:01:06;4.13;;;1.47;;
13335;SDS011;6737;51.480;11.962;2023-01-10T08:03:32;3.33;;;1.50;;
13335;SDS011;6737;51.480;11.962;2023-01-10T08:05:59;3.43;;;1.77;;
13335;SDS011;6737;51.480;11.962;2023-01-10T08:08:30;2.60;;;1.53;;
13335;SDS011;6737;51.480;11.962;2023-01-10T08:10:57;2.97;;;1.50;;
13335;SDS011;6737;51.480;11.962;2023-01-10T08:13:29;3.50;;;1.63;;
13335;SDS011;6737;51.480;11.962;2023-01-10T08:15:56;3.63;;;1.70;;
13335;SDS011;6737;51.480;11.962;2023-01-10T08:18:22;5.17;;;2.57;;
13335;SDS011;6737;51.480;11.962;2023-01-10T08:20:49;4.33;;;2.20;;
13335;SDS011;6737;51.480;11.962;2023-01-10T08:23:17;5.83;;;2.10;;
13335;SDS011;6737;51.480;11.962;2023-01-10T08:25:43;6.17;;;2.10;;
13335;SDS011;6737;51.480;11.962;2023-01-10T08:28:09;5.07;;;2.40;;
13335;SDS011;6737;51.480;11.962;2023-01-10T08:30:36;6.57;;;2.30;;
13335;SDS011;6737;51.480;11.962;2023-01-10T08:33:02;4.27;;;2.37;;
13335;SDS011;6737;51.480;11.962;2023-01-10T08:35:29;8.03;;;2.80;;
13335;SDS011;6737;51.480;11.962;2023-01-10T08:37:58;6.63;;;2.73;;
13335;SDS011;6737;51.480;11.962;2023-01-10T08:40:25;6.50;;;2.73;;
13335;SDS011;6737;51.480;11.962;2023-01-10T08:43:04;5.03;;;2.77;;
13335;SDS011;6737;51.480;11.962;2023-01-10T08:45:32;4.77;;;2.77;;
13335;SDS011;6737;51.480;11.962;2023-01-10T08:47:58;7.40;;;2.90;;
13335;SDS011;6737;51.480;11.962;2023-01-10T08:50:24;8.17;;;3.20;;
13335;SDS011;6737;51.480;11.962;2023-01-10T08:52:50;7.40;;;2.80;;
13335;SDS011;6737;51.480;11.962;2023-01-10T08:55:16;5.30;;;2.90;;
13335;SDS011;6737;51.480;11.962;2023-01-10T08:57:43;9.73;;;3.17;;
13335;SDS011;6737;51.480;11.962;2023-01-10T09:00:09;8.07;;;3.17;;
13335;SDS011;6737;51.480;11.962;2023-01-10T09:02:38;5.17;;;2.77;;
13335;SDS011;6737;51.480;11.962;2023-01-10T09:05:05;9.17;;;3.10;;
13335;SDS011;6737;51.480;11.962;2023-01-10T09:07:31;6.80;;;2.77;;
13335;SDS011;6737;51.480;11.962;2023-01-10T09:09:57;8.30;;;3.23;;
13335;SDS011;6737;51.480;11.962;2023-01-10T09:12:22;7.77;;;3.13;;
13335;SDS011;6737;51.480;11.962;2023-01-10T09:15:28;5.43;;;2.70;;
13335;SDS011;6737;51.480;11.962;2023-01-10T09:17:56;4.37;;;2.83;;
13335;SDS011;6737;51.480;11.962;2023-01-10T09:20:24;5.40;;;2.37;;
13335;SDS011;6737;51.480;11.962;2023-01-10T09:22:51;6.00;;;2.80;;
13335;SDS011;6737;51.480;11.962;2023-01-10T09:25:17;7.90;;;2.60;;
13335;SDS011;6737;51.480;11.962;2023-01-10T09:27:43;5.13;;;2.40;;
13335;SDS011;6737;51.480;11.962;2023-01-10T09:30:09;7.03;;;2.20;;
13335;SDS011;6737;51.480;11.962;2023-01-10T09:32:36;5.90;;;2.17;;
13335;SDS011;6737;51.480;11.962;2023-01-10T09:35:02;5.13;;;2.30;;
13335;SDS011;6737;51.480;11.962;2023-01-10T09:37:28;6.43;;;2.67;;
13335;SDS011;6737;51.480;11.962;2023-01-10T09:39:54;7.60;;;2.53;;
13335;SDS011;6737;51.480;11.962;2023-01-10T09:50:18;5.40;;;2.00;;
13335;SDS011;6737;51.480;11.962;2023-01-10T09:53:01;5.90;;;2.27;;
13335;SDS011;6737;51.480;11.962;2023-01-10T09:55:43;8.23;;;2.50;;
13335;SDS011;6737;51.480;11.962;2023-01-10T09:58:15;6.63;;;2.30;;
13335;SDS011;6737;51.480;11.962;2023-01-10T10:03:40;6.93;;;2.67;;
13335;SDS011;6737;51.480;11.962;2023-01-10T10:06:34;6.53;;;2.00;;
13335;SDS011;6737;51.480;11.962;2023-01-10T10:09:00;6.20;;;2.10;;
13335;SDS011;6737;51.480;11.962;2023-01-10T10:39:13;4.97;;;1.80;;
13335;SDS011;6737;51.480;11.962;2023-01-10T10:41:44;4.17;;;1.80;;
13335;SDS011;6737;51.480;11.962;2023-01-10T10:46:47;6.60;;;2.47;;
13335;SDS011;6737;51.480;11.962;2023-01-10T10:49:15;4.57;;;1.70;;
13335;SDS011;6737;51.480;11.962;2023-01-10T10:52:06;8.63;;;1.80;;
13335;SDS011;6737;51.480;11.962;2023-01-10T10:55:03;5.50;;;2.00;;
13335;SDS011;6737;51.480;11.962;2023-01-10T10:57:32;6.47;;;1.77;;
13335;SDS011;6737;51.480;11.962;2023-01-10T11:00:03;3.80;;;1.80;;
13335;SDS011;6737;51.480;11.962;2023-01-10T11:02:34;6.27;;;1.60;;
13335;SDS011;6737;51.480;11.962;2023-01-10T11:05:12;5.50;;;2.10;;
13335;SDS011;6737;51.480;11.962;2023-01-10T11:07:42;5.33;;;1.60;;
13335;SDS011;6737;51.480;11.962;2023-01-10T11:10:13;7.23;;;1.87;;
13335;SDS011;6737;51.480;11.962;2023-01-10T11:12:59;7.50;;;1.80;;
13335;SDS011;6737;51.480;11.962;2023-01-10T11:18:10;4.33;;;1.70;;
13335;SDS011;6737;51.480;11.962;2023-01-10T11:20:35;4.33;;;1.50;;
13335;SDS011;6737;51.480;11.962;2023-01-10T11:23:02;4.60;;;1.73;;
13335;SDS011;6737;51.480;11.962;2023-01-10T11:25:28;4.40;;;1.93;;
13335;SDS011;6737;51.480;11.962;2023-01-10T11:27:56;5.07;;;2.10;;
13335;SDS011;6737;51.480;11.962;2023-01-10T11:30:29;4.63;;;2.00;;
13335;SDS011;6737;51.480;11.962;2023-01-10T11:32:58;4.73;;;1.70;;
13335;SDS011;6737;51.480;11.962;2023-01-10T11:35:36;5.27;;;1.70;;
13335;SDS011;6737;51.480;11.962;2023-01-10T11:38:08;4.77;;;1.60;;
13335;SDS011;6737;51.480;11.962;2023-01-10T11:40:53;5.73;;;1.77;;
13335;SDS011;6737;51.480;11.962;2023-01-10T11:43:29;4.40;;;1.80;;
13335;SDS011;6737;51.480;11.962;2023-01-10T11:48:27;4.83;;;1.70;;
13335;SDS011;6737;51.480;11.962;2023-01-10T11:51:15;5.23;;;1.80;;
13335;SDS011;6737;51.480;11.962;2023-01-10T11:56:34;6.97;;;1.87;;
13335;SDS011;6737;51.480;11.962;2023-01-10T11:59:14;4.47;;;1.47;;
13335;SDS011;6737;51.480;11.962;2023-01-10T12:04:13;3.67;;;1.70;;
13335;SDS011;6737;51.480;11.962;2023-01-10T12:06:44;5.83;;;1.70;;
13335;SDS011;6737;51.480;11.962;2023-01-10T12:12:02;5.83;;;1.83;;
13335;SDS011;6737;51.480;11.962;2023-01-10T12:14:30;6.03;;;2.00;;
13335;SDS011;6737;51.480;11.962;2023-01-10T12:16:59;3.33;;;1.97;;
13335;SDS011;6737;51.480;11.962;2023-01-10T12:19:27;4.47;;;1.93;;
13335;SDS011;6737;51.480;11.962;2023-01-10T12:21:54;5.93;;;2.17;;
13335;SDS011;6737;51.480;11.962;2023-01-10T12:24:29;4.77;;;1.90;;
13335;SDS011;6737;51.480;11.962;2023-01-10T12:27:00;7.63;;;2.00;;
13335;SDS011;6737;51.480;11.962;2023-01-10T12:29:28;6.07;;;2.00;;
13335;SDS011;6737;51.480;11.962;2023-01-10T12:32:10;5.67;;;2.33;;
13335;SDS011;6737;51.480;11.962;2023-01-10T12:34:51;6.27;;;2.00;;
13335;SDS011;6737;51.480;11.962;2023-01-10T12:37:29;5.30;;;2.20;;
13335;SDS011;6737;51.480;11.962;2023-01-10T12:40:09;3.07;;;2.10;;
13335;SDS011;6737;51.480;11.962;2023-01-10T12:42:44;4.83;;;1.93;;
13335;SDS011;6737;51.480;11.962;2023-01-10T12:45:55;7.23;;;2.20;;
13335;SDS011;6737;51.480;11.962;2023-01-10T12:48:37;7.13;;;2.40;;
13335;SDS011;6737;51.480;11.962;2023-01-10T12:51:14;6.00;;;2.23;;
13335;SDS011;6737;51.480;11.962;2023-01-10T12:53:47;8.93;;;3.07;;
13335;SDS011;6737;51.480;11.962;2023-01-10T12:56:18;4.60;;;2.30;;
13335;SDS011;6737;51.480;11.962;2023-01-10T12:58:48;4.40;;;2.23;;
13335;SDS011;6737;51.480;11.962;2023-01-10T13:01:21;7.20;;;2.90;;
13335;SDS011;6737;51.480;11.962;2023-01-10T13:03:53;7.30;;;2.53;;
13335;SDS011;6737;51.480;11.962;2023-01-10T13:06:33;5.23;;;2.53;;
13335;SDS011;6737;51.480;11.962;2023-01-10T13:09:04;5.50;;;2.50;;
13335;SDS011;6737;51.480;11.962;2023-01-10T13:11:57;6.97;;;2.57;;
13335;SDS011;6737;51.480;11.962;2023-01-10T13:14:28;6.03;;;2.57;;
13335;SDS011;6737;51.480;11.962;2023-01-10T13:20:16;6.93;;;2.40;;
13335;SDS011;6737;51.480;11.962;2023-01-10T13:22:40;8.50;;;2.57;;
13335;SDS011;6737;51.480;11.962;2023-01-10T13:25:17;4.57;;;2.30;;
13335;SDS011;6737;51.480;11.962;2023-01-10T13:28:35;5.97;;;2.57;;
13335;SDS011;6737;51.480;11.962;2023-01-10T13:30:50;7.33;;;2.30;;
13335;SDS011;6737;51.480;11.962;2023-01-10T13:33:25;6.60;;;2.80;;
13335;SDS011;6737;51.480;11.962;2023-01-10T13:36:37;4.83;;;2.43;;
13335;SDS011;6737;51.480;11.962;2023-01-10T13:39:02;3.60;;;2.10;;
13335;SDS011;6737;51.480;11.962;2023-01-10T13:42:34;4.07;;;2.13;;
13335;SDS011;6737;51.480;11.962;2023-01-10T14:12:07;6.60;;;2.00;;
13335;SDS011;6737;51.480;11.962;2023-01-10T14:14:23;4.00;;;1.90;;
13335;SDS011;6737;51.480;11.962;2023-01-10T14:17:11;4.03;;;1.67;;
13335;SDS011;6737;51.480;11.962;2023-01-10T14:19:39;8.80;;;2.37;;
13335;SDS011;6737;51.480;11.962;2023-01-10T14:22:17;5.47;;;1.90;;
13335;SDS011;6737;51.480;11.962;2023-01-10T14:24:49;6.33;;;2.37;;
13335;SDS011;6737;51.480;11.962;2023-01-10T14:27:17;4.20;;;1.83;;
13335;SDS011;6737;51.480;11.962;2023-01-10T14:29:57;3.87;;;1.77;;
13335;SDS011;6737;51.480;11.962;2023-01-10T14:32:38;7.63;;;2.30;;
13335;SDS011;6737;51.480;11.962;2023-01-10T14:35:08;5.20;;;2.10;;
13335;SDS011;6737;51.480;11.962;2023-01-10T14:37:44;6.27;;;2.53;;
13335;SDS011;6737;51.480;11.962;2023-01-10T14:40:24;4.77;;;2.00;;
13335;SDS011;6737;51.480;11.962;2023-01-10T14:43:00;4.93;;;1.70;;
13335;SDS011;6737;51.480;11.962;2023-01-10T14:45:30;5.23;;;2.20;;
13335;SDS011;6737;51.480;11.962;2023-01-10T14:49:15;3.43;;;1.70;;
13335;SDS011;6737;51.480;11.962;2023-01-10T14:53:46;8.60;;;1.77;;
13335;SDS011;6737;51.480;11.962;2023-01-10T14:56:38;5.70;;;1.80;;
13335;SDS011;6737;51.480;11.962;2023-01-10T14:59:22;5.10;;;1.60;;
13335;SDS011;6737;51.480;11.962;2023-01-10T15:01:50;4.23;;;1.50;;
13335;SDS011;6737;51.480;11.962;2023-01-10T15:04:22;5.57;;;1.80;;
13335;SDS011;6737;51.480;11.962;2023-01-10T15:07:00;6.53;;;2.13;;
13335;SDS011;6737;51.480;11.962;2023-01-10T15:09:35;5.50;;;1.90;;
13335;SDS011;6737;51.480;11.962;2023-01-10T15:12:01;8.07;;;1.80;;
13335;SDS011;6737;51.480;11.962;2023-01-10T15:14:31;6.40;;;1.73;;
13335;SDS011;6737;51.480;11.962;2023-01-10T15:17:00;4.87;;;1.60;;
13335;SDS011;6737;51.480;11.962;2023-01-10T15:19:33;5.00;;;1.50;;
13335;SDS011;6737;51.480;11.962;2023-01-10T15:22:01;4.80;;;1.90;;
13335;SDS011;6737;51.480;11.962;2023-01-10T15:26:53;9.13;;;2.17;;
13335;SDS011;6737;51.480;11.962;2023-01-10T15:29:24;6.97;;;1.70;;
13335;SDS011;6737;51.480;11.962;2023-01-10T15:31:52;7.20;;;2.00;;
13335;SDS011;6737;51.480;11.962;2023-01-10T15:34:21;7.23;;;1.80;;
13335;SDS011;6737;51.480;11.962;2023-01-10T15:36:53;4.47;;;1.60;;
13335;SDS011;6737;51.480;11.962;2023-01-10T15:39:22;4.67;;;1.53;;
13335;SDS011;6737;51.480;11.962;2023-01-10T15:41:54;5.07;;;1.80;;
13335;SDS011;6737;51.480;11.962;2023-01-10T15:44:30;6.37;;;1.83;;
13335;SDS011;6737;51.480;11.962;2023-01-10T15:47:01;8.00;;;2.00;;
13335;SDS011;6737;51.480;11.962;2023-01-10T15:49:27;6.83;;;1.80;;
13335;SDS011;6737;51.480;11.962;2023-01-10T15:51:53;6.20;;;1.60;;
13335;SDS011;6737;51.480;11.962;2023-01-10T15:59:26;6.57;;;1.77;;
13335;SDS011;6737;51.480;11.962;2023-01-10T16:04:54;6.60;;;1.77;;
13335;SDS011;6737;51.480;11.962;2023-01-10T16:07:23;4.93;;;1.57;;
13335;SDS011;6737;51.480;11.962;2023-01-10T16:13:06;6.73;;;1.73;;
13335;SDS011;6737;51.480;11.962;2023-01-10T16:15:52;7.10;;;1.70;;
13335;SDS011;6737;51.480;11.962;2023-01-10T16:18:20;4.67;;;1.50;;
13335;SDS011;6737;51.480;11.962;2023-01-10T16:20:46;6.07;;;1.50;;
13335;SDS011;6737;51.480;11.962;2023-01-10T16:23:15;6.93;;;1.93;;
13335;SDS011;6737;51.480;11.962;2023-01-10T16:25:45;7.33;;;1.80;;
13335;SDS011;6737;51.480;11.962;2023-01-10T16:28:14;7.27;;;1.50;;
13335;SDS011;6737;51.480;11.962;2023-01-10T16:30:42;4.83;;;1.40;;
13335;SDS011;6737;51.480;11.962;2023-01-10T16:33:12;5.50;;;1.67;;
13335;SDS011;6737;51.480;11.962;2023-01-10T16:35:43;9.03;;;1.60;;
13335;SDS011;6737;51.480;11.962;2023-01-10T16:38:11;4.20;;;1.50;;
13335;SDS011;6737;51.480;11.962;2023-01-10T16:40:39;4.10;;;1.50;;
13335;SDS011;6737;51.480;11.962;2023-01-10T16:43:06;3.93;;;1.20;;
13335;SDS011;6737;51.480;11.962;2023-01-10T16:45:53;5.07;;;1.17;;
13335;SDS011;6737;51.480;11.962;2023-01-10T16:48:24;5.30;;;1.43;;
13335;SDS011;6737;51.480;11.962;2023-01-10T16:50:52;3.10;;;1.30;;
13335;SDS011;6737;51.480;11.962;2023-01-10T16:53:18;3.67;;;1.50;;
13335;SDS011;6737;51.480;11.962;2023-01-10T16:58:14;3.17;;;1.30;;
13335;SDS011;6737;51.480;11.962;2023-01-10T17:00:41;5.03;;;1.73;;
13335;SDS011;6737;51.480;11.962;2023-01-10T17:03:12;4.50;;;1.60;;
13335;SDS011;6737;51.480;11.962;2023-01-10T17:05:41;3.67;;;1.50;;
13335;SDS011;6737;51.480;11.962;2023-01-10T17:08:15;5.20;;;1.30;;
13335;SDS011;6737;51.480;11.962;2023-01-10T17:10:42;8.73;;;2.03;;
13335;SDS011;6737;51.480;11.962;2023-01-10T17:13:10;6.87;;;1.53;;
13335;SDS011;6737;51.480;11.962;2023-01-10T17:15:36;3.93;;;1.40;;
13335;SDS011;6737;51.480;11.962;2023-01-10T17:18:02;4.23;;;1.43;;
13335;SDS011;6737;51.480;11.962;2023-01-10T17:20:28;5.97;;;1.53;;